Hulbert, Michigan
Current Conditions -  °F | °C
As of 3:14 PM on Thursday 29 Jan 2015 (Local Time) from KERY Reporting Station
Haze Haze  
Wind Chill: -12°   Ceiling: 900
Heat Index: -4°   Visibility: 2mi
Dew Point: -5°   Wind: 18mph
Humidity: 92%   Direction: 320°NW
Pressure: 29.82"   Gusts: 26mph
Location:  46.35°N, 85.15°W
Report Text: KERY 292014Z AUTO 32016G23KT 2SM BR OVC009 M04/M05 A2982 RMK AO2 VIS 1 1/4V5 T10411052
Loading
Personal Weather Stations






























Interactive Weather Map New forecast layout! Learn more

10-Day Weather Forecast

Advertisements
Track Severe Weather on mobile